sensor_id;sensor_type;location;lat;lon;timestamp;temperature;humidity
22288;DHT22;11312;51.464;6.968;2023-04-16T00:00:48;9.90;99.90
22288;DHT22;11312;51.464;6.968;2023-04-16T00:03:17;8.60;99.90
22288;DHT22;11312;51.464;6.968;2023-04-16T00:05:48;8.30;99.90
22288;DHT22;11312;51.464;6.968;2023-04-16T00:08:16;8.70;99.90
22288;DHT22;11312;51.464;6.968;2023-04-16T00:10:43;9.00;99.90
22288;DHT22;11312;51.464;6.968;2023-04-16T00:13:10;10.20;99.90
22288;DHT22;11312;51.464;6.968;2023-04-16T00:15:38;8.90;99.90
22288;DHT22;11312;51.464;6.968;2023-04-16T00:18:04;8.60;99.90
22288;DHT22;11312;51.464;6.968;2023-04-16T00:20:29;9.10;99.90
22288;DHT22;11312;51.464;6.968;2023-04-16T00:22:55;10.10;99.90
22288;DHT22;11312;51.464;6.968;2023-04-16T00:25:21;8.60;99.90
22288;DHT22;11312;51.464;6.968;2023-04-16T00:27:52;7.70;99.90
22288;DHT22;11312;51.464;6.968;2023-04-16T00:30:29;9.00;99.90
22288;DHT22;11312;51.464;6.968;2023-04-16T00:33:01;10.10;99.90
22288;DHT22;11312;51.464;6.968;2023-04-16T00:35:27;9.20;99.90
22288;DHT22;11312;51.464;6.968;2023-04-16T00:37:54;9.30;99.90
22288;DHT22;11312;51.464;6.968;2023-04-16T00:40:26;9.50;99.90
22288;DHT22;11312;51.464;6.968;2023-04-16T00:42:53;8.70;99.90
22288;DHT22;11312;51.464;6.968;2023-04-16T00:45:22;9.10;99.90
22288;DHT22;11312;51.464;6.968;2023-04-16T00:47:48;7.60;99.90
22288;DHT22;11312;51.464;6.968;2023-04-16T00:50:14;8.30;99.90
22288;DHT22;11312;51.464;6.968;2023-04-16T00:52:41;9.40;99.90
22288;DHT22;11312;51.464;6.968;2023-04-16T00:55:07;8.40;99.90
22288;DHT22;11312;51.464;6.968;2023-04-16T00:57:37;8.70;99.90
22288;DHT22;11312;51.464;6.968;2023-04-16T01:00:04;8.80;99.90
22288;DHT22;11312;51.464;6.968;2023-04-16T01:02:29;8.80;99.90
22288;DHT22;11312;51.464;6.968;2023-04-16T01:04:55;10.30;99.90
22288;DHT22;11312;51.464;6.968;2023-04-16T01:07:28;9.20;99.90
22288;DHT22;11312;51.464;6.968;2023-04-16T01:09:56;8.90;99.90
22288;DHT22;11312;51.464;6.968;2023-04-16T01:12:22;10.10;99.90
22288;DHT22;11312;51.464;6.968;2023-04-16T01:14:52;9.10;99.90
22288;DHT22;11312;51.464;6.968;2023-04-16T01:17:20;10.40;99.90
22288;DHT22;11312;51.464;6.968;2023-04-16T01:19:46;9.30;99.90
22288;DHT22;11312;51.464;6.968;2023-04-16T01:22:12;9.30;99.90
22288;DHT22;11312;51.464;6.968;2023-04-16T01:24:46;10.40;99.90
22288;DHT22;11312;51.464;6.968;2023-04-16T01:27:11;8.90;99.90
22288;DHT22;11312;51.464;6.968;2023-04-16T01:29:38;8.90;99.90
22288;DHT22;11312;51.464;6.968;2023-04-16T01:32:03;10.00;99.90
22288;DHT22;11312;51.464;6.968;2023-04-16T01:34:29;8.80;99.90
22288;DHT22;11312;51.464;6.968;2023-04-16T01:36:55;7.30;99.90
22288;DHT22;11312;51.464;6.968;2023-04-16T01:39:22;8.80;99.90
22288;DHT22;11312;51.464;6.968;2023-04-16T01:41:48;8.90;99.90
22288;DHT22;11312;51.464;6.968;2023-04-16T01:44:18;8.80;99.90
22288;DHT22;11312;51.464;6.968;2023-04-16T01:46:46;10.20;99.90
22288;DHT22;11312;51.464;6.968;2023-04-16T01:49:11;9.50;99.90
22288;DHT22;11312;51.464;6.968;2023-04-16T01:51:39;9.40;99.90
22288;DHT22;11312;51.464;6.968;2023-04-16T01:54:12;9.70;99.90
22288;DHT22;11312;51.464;6.968;2023-04-16T01:56:40;9.30;99.90
22288;DHT22;11312;51.464;6.968;2023-04-16T01:59:06;9.80;99.90
22288;DHT22;11312;51.464;6.968;2023-04-16T02:01:32;9.10;99.90
22288;DHT22;11312;51.464;6.968;2023-04-16T02:03:59;9.00;99.90
22288;DHT22;11312;51.464;6.968;2023-04-16T02:06:28;9.20;99.90
22288;DHT22;11312;51.464;6.968;2023-04-16T02:08:58;10.20;99.90
22288;DHT22;11312;51.464;6.968;2023-04-16T02:11:26;8.40;99.90
22288;DHT22;11312;51.464;6.968;2023-04-16T02:13:53;9.70;99.90
22288;DHT22;11312;51.464;6.968;2023-04-16T02:16:19;8.70;99.90
22288;DHT22;11312;51.464;6.968;2023-04-16T02:18:52;10.00;99.90
22288;DHT22;11312;51.464;6.968;2023-04-16T02:21:18;8.60;99.90
22288;DHT22;11312;51.464;6.968;2023-04-16T02:23:51;9.00;99.90
22288;DHT22;11312;51.464;6.968;2023-04-16T02:26:17;9.40;99.90
22288;DHT22;11312;51.464;6.968;2023-04-16T02:28:50;10.30;99.90
22288;DHT22;11312;51.464;6.968;2023-04-16T02:31:18;9.70;99.90
22288;DHT22;11312;51.464;6.968;2023-04-16T02:33:46;9.30;99.90
22288;DHT22;11312;51.464;6.968;2023-04-16T02:36:12;9.70;99.90
22288;DHT22;11312;51.464;6.968;2023-04-16T02:38:37;9.20;99.90
22288;DHT22;11312;51.464;6.968;2023-04-16T02:41:21;9.10;99.90
22288;DHT22;11312;51.464;6.968;2023-04-16T02:44:00;9.20;99.90
22288;DHT22;11312;51.464;6.968;2023-04-16T02:46:32;9.70;99.90
22288;DHT22;11312;51.464;6.968;2023-04-16T02:49:00;8.30;99.90
22288;DHT22;11312;51.464;6.968;2023-04-16T02:51:31;9.60;99.90
22288;DHT22;11312;51.464;6.968;2023-04-16T02:53:59;10.00;99.90
22288;DHT22;11312;51.464;6.968;2023-04-16T02:56:34;9.20;99.90
22288;DHT22;11312;51.464;6.968;2023-04-16T02:59:00;9.90;99.90
22288;DHT22;11312;51.464;6.968;2023-04-16T03:01:33;9.30;99.90
22288;DHT22;11312;51.464;6.968;2023-04-16T03:04:02;8.80;99.90
22288;DHT22;11312;51.464;6.968;2023-04-16T03:06:35;8.40;99.90
22288;DHT22;11312;51.464;6.968;2023-04-16T03:09:00;9.30;99.90
22288;DHT22;11312;51.464;6.968;2023-04-16T03:11:36;9.60;99.90
22288;DHT22;11312;51.464;6.968;2023-04-16T03:14:05;9.20;99.90
22288;DHT22;11312;51.464;6.968;2023-04-16T03:16:31;8.80;99.90
22288;DHT22;11312;51.464;6.968;2023-04-16T03:19:08;8.70;99.90
22288;DHT22;11312;51.464;6.968;2023-04-16T03:21:33;8.60;99.90
22288;DHT22;11312;51.464;6.968;2023-04-16T03:24:25;9.70;99.90
22288;DHT22;11312;51.464;6.968;2023-04-16T03:26:57;8.90;99.90
22288;DHT22;11312;51.464;6.968;2023-04-16T03:29:28;9.30;99.90
22288;DHT22;11312;51.464;6.968;2023-04-16T03:32:00;8.70;99.90
22288;DHT22;11312;51.464;6.968;2023-04-16T03:34:39;8.80;99.90
22288;DHT22;11312;51.464;6.968;2023-04-16T03:37:09;8.80;99.90
22288;DHT22;11312;51.464;6.968;2023-04-16T03:39:36;9.70;99.90
22288;DHT22;11312;51.464;6.968;2023-04-16T03:42:11;8.90;99.90
22288;DHT22;11312;51.464;6.968;2023-04-16T03:44:45;8.80;99.90
22288;DHT22;11312;51.464;6.968;2023-04-16T03:47:15;8.80;99.90
22288;DHT22;11312;51.464;6.968;2023-04-16T03:49:46;10.10;99.90
22288;DHT22;11312;51.464;6.968;2023-04-16T03:52:19;8.90;99.90
22288;DHT22;11312;51.464;6.968;2023-04-16T03:54:55;7.30;99.90
22288;DHT22;11312;51.464;6.968;2023-04-16T03:57:24;8.80;99.90
22288;DHT22;11312;51.464;6.968;2023-04-16T03:59:49;9.10;99.90
22288;DHT22;11312;51.464;6.968;2023-04-16T04:02:18;8.90;99.90
22288;DHT22;11312;51.464;6.968;2023-04-16T04:04:44;9.40;99.90
22288;DHT22;11312;51.464;6.968;2023-04-16T04:07:09;10.00;99.90
22288;DHT22;11312;51.464;6.968;2023-04-16T04:09:44;8.90;99.90
22288;DHT22;11312;51.464;6.968;2023-04-16T04:12:18;8.50;99.90
22288;DHT22;11312;51.464;6.968;2023-04-16T04:14:49;9.10;99.90
22288;DHT22;11312;51.464;6.968;2023-04-16T04:17:23;8.60;99.90
22288;DHT22;11312;51.464;6.968;2023-04-16T04:19:54;9.30;99.90
22288;DHT22;11312;51.464;6.968;2023-04-16T04:22:22;9.50;99.90
22288;DHT22;11312;51.464;6.968;2023-04-16T04:24:50;9.90;99.90
22288;DHT22;11312;51.464;6.968;2023-04-16T04:27:25;8.80;99.90
22288;DHT22;11312;51.464;6.968;2023-04-16T04:29:53;9.00;99.90
22288;DHT22;11312;51.464;6.968;2023-04-16T04:32:23;8.80;99.90
22288;DHT22;11312;51.464;6.968;2023-04-16T04:34:59;10.00;99.90
22288;DHT22;11312;51.464;6.968;2023-04-16T04:37:34;8.90;99.90
22288;DHT22;11312;51.464;6.968;2023-04-16T04:39:59;10.40;99.90
22288;DHT22;11312;51.464;6.968;2023-04-16T04:42:25;10.50;99.90
22288;DHT22;11312;51.464;6.968;2023-04-16T04:44:52;8.90;99.90
22288;DHT22;11312;51.464;6.968;2023-04-16T04:47:25;9.30;99.90
22288;DHT22;11312;51.464;6.968;2023-04-16T04:50:00;8.50;99.90
22288;DHT22;11312;51.464;6.968;2023-04-16T04:52:28;9.90;99.90
22288;DHT22;11312;51.464;6.968;2023-04-16T04:54:55;8.60;99.90
22288;DHT22;11312;51.464;6.968;2023-04-16T04:57:20;9.40;99.90
22288;DHT22;11312;51.464;6.968;2023-04-16T04:59:46;10.40;99.90
22288;DHT22;11312;51.464;6.968;2023-04-16T05:02:14;8.70;99.90
22288;DHT22;11312;51.464;6.968;2023-04-16T05:04:39;8.80;99.90
22288;DHT22;11312;51.464;6.968;2023-04-16T05:07:05;9.90;99.90
22288;DHT22;11312;51.464;6.968;2023-04-16T05:09:39;8.80;99.90
22288;DHT22;11312;51.464;6.968;2023-04-16T05:12:07;9.40;99.90
22288;DHT22;11312;51.464;6.968;2023-04-16T05:14:44;9.80;99.90
22288;DHT22;11312;51.464;6.968;2023-04-16T05:17:12;9.30;99.90
22288;DHT22;11312;51.464;6.968;2023-04-16T05:19:50;9.40;99.90
22288;DHT22;11312;51.464;6.968;2023-04-16T05:22:19;9.40;99.90
22288;DHT22;11312;51.464;6.968;2023-04-16T05:24:47;10.10;99.90
22288;DHT22;11312;51.464;6.968;2023-04-16T05:27:26;8.80;99.90
22288;DHT22;11312;51.464;6.968;2023-04-16T05:29:51;10.00;99.90
22288;DHT22;11312;51.464;6.968;2023-04-16T05:32:17;9.20;99.90
22288;DHT22;11312;51.464;6.968;2023-04-16T05:34:47;9.00;99.90
22288;DHT22;11312;51.464;6.968;2023-04-16T05:37:15;8.70;99.90
22288;DHT22;11312;51.464;6.968;2023-04-16T05:39:48;10.60;99.90
22288;DHT22;11312;51.464;6.968;2023-04-16T05:42:34;9.50;99.90
22288;DHT22;11312;51.464;6.968;2023-04-16T05:45:08;9.40;99.90
22288;DHT22;11312;51.464;6.968;2023-04-16T05:47:43;8.80;99.90
22288;DHT22;11312;51.464;6.968;2023-04-16T05:50:15;9.30;99.90
22288;DHT22;11312;51.464;6.968;2023-04-16T05:52:47;9.10;99.90
22288;DHT22;11312;51.464;6.968;2023-04-16T05:55:23;9.60;99.90
22288;DHT22;11312;51.464;6.968;2023-04-16T05:57:55;8.80;99.90
22288;DHT22;11312;51.464;6.968;2023-04-16T06:00:25;9.00;99.90
22288;DHT22;11312;51.464;6.968;2023-04-16T06:03:14;7.90;99.90
22288;DHT22;11312;51.464;6.968;2023-04-16T06:06:03;9.00;99.90
22288;DHT22;11312;51.464;6.968;2023-04-16T06:08:41;9.40;99.90
22288;DHT22;11312;51.464;6.968;2023-04-16T06:11:16;9.70;99.90
22288;DHT22;11312;51.464;6.968;2023-04-16T06:14:05;9.20;99.90
22288;DHT22;11312;51.464;6.968;2023-04-16T06:23:24;9.10;99.90
22288;DHT22;11312;51.464;6.968;2023-04-16T06:36:36;9.60;99.90
22288;DHT22;11312;51.464;6.968;2023-04-16T06:43:19;9.60;99.90
22288;DHT22;11312;51.464;6.968;2023-04-16T07:00:29;9.40;99.90
22288;DHT22;11312;51.464;6.968;2023-04-16T12:01:21;13.20;99.90
22288;DHT22;11312;51.464;6.968;2023-04-16T12:03:47;14.10;99.90
22288;DHT22;11312;51.464;6.968;2023-04-16T12:06:13;14.40;99.90
22288;DHT22;11312;51.464;6.968;2023-04-16T12:08:39;14.90;99.90
22288;DHT22;11312;51.464;6.968;2023-04-16T12:11:05;14.80;99.90
22288;DHT22;11312;51.464;6.968;2023-04-16T12:13:31;14.90;99.90
22288;DHT22;11312;51.464;6.968;2023-04-16T12:16:15;14.90;99.90
22288;DHT22;11312;51.464;6.968;2023-04-16T12:18:58;14.60;99.90
22288;DHT22;11312;51.464;6.968;2023-04-16T12:21:24;14.80;99.90
22288;DHT22;11312;51.464;6.968;2023-04-16T12:23:52;14.90;99.90
22288;DHT22;11312;51.464;6.968;2023-04-16T12:26:18;14.80;99.90
22288;DHT22;11312;51.464;6.968;2023-04-16T12:28:44;14.70;99.90
22288;DHT22;11312;51.464;6.968;2023-04-16T12:31:10;14.40;99.90
22288;DHT22;11312;51.464;6.968;2023-04-16T12:33:35;14.10;99.90
22288;DHT22;11312;51.464;6.968;2023-04-16T12:36:19;13.90;99.90
22288;DHT22;11312;51.464;6.968;2023-04-16T12:38:44;13.80;99.90
22288;DHT22;11312;51.464;6.968;2023-04-16T12:41:10;13.50;99.90
22288;DHT22;11312;51.464;6.968;2023-04-16T12:43:36;13.50;99.90
22288;DHT22;11312;51.464;6.968;2023-04-16T12:46:01;13.40;99.90
22288;DHT22;11312;51.464;6.968;2023-04-16T12:48:27;13.40;99.90
22288;DHT22;11312;51.464;6.968;2023-04-16T12:50:53;13.40;99.90
22288;DHT22;11312;51.464;6.968;2023-04-16T12:53:19;13.30;99.90
22288;DHT22;11312;51.464;6.968;2023-04-16T12:55:45;13.50;99.90
22288;DHT22;11312;51.464;6.968;2023-04-16T12:58:10;13.50;99.90
22288;DHT22;11312;51.464;6.968;2023-04-16T13:00:36;13.50;99.90
22288;DHT22;11312;51.464;6.968;2023-04-16T13:03:02;13.50;99.90
22288;DHT22;11312;51.464;6.968;2023-04-16T13:05:27;13.50;99.90
22288;DHT22;11312;51.464;6.968;2023-04-16T13:07:53;13.60;99.90
22288;DHT22;11312;51.464;6.968;2023-04-16T13:10:20;13.60;99.90
22288;DHT22;11312;51.464;6.968;2023-04-16T13:12:46;13.70;99.90
22288;DHT22;11312;51.464;6.968;2023-04-16T13:15:11;13.70;99.90
22288;DHT22;11312;51.464;6.968;2023-04-16T13:17:37;13.80;99.90
22288;DHT22;11312;51.464;6.968;2023-04-16T13:20:03;14.00;99.90
22288;DHT22;11312;51.464;6.968;2023-04-16T13:22:29;13.90;99.90
22288;DHT22;11312;51.464;6.968;2023-04-16T13:24:54;14.10;99.90
22288;DHT22;11312;51.464;6.968;2023-04-16T13:27:20;14.10;99.90
22288;DHT22;11312;51.464;6.968;2023-04-16T13:29:45;14.10;99.90
22288;DHT22;11312;51.464;6.968;2023-04-16T13:32:11;14.00;99.90
22288;DHT22;11312;51.464;6.968;2023-04-16T13:34:38;14.00;99.90
22288;DHT22;11312;51.464;6.968;2023-04-16T13:37:03;14.00;99.90
22288;DHT22;11312;51.464;6.968;2023-04-16T13:39:29;14.50;99.90
22288;DHT22;11312;51.464;6.968;2023-04-16T13:41:55;14.70;99.90
22288;DHT22;11312;51.464;6.968;2023-04-16T13:44:20;15.00;99.90
22288;DHT22;11312;51.464;6.968;2023-04-16T13:46:46;15.10;99.90
22288;DHT22;11312;51.464;6.968;2023-04-16T13:49:12;15.30;99.90
22288;DHT22;11312;51.464;6.968;2023-04-16T13:51:38;15.10;99.90
22288;DHT22;11312;51.464;6.968;2023-04-16T13:54:04;15.40;99.90
22288;DHT22;11312;51.464;6.968;2023-04-16T13:56:29;15.40;99.90
22288;DHT22;11312;51.464;6.968;2023-04-16T13:58:55;15.10;99.90
22288;DHT22;11312;51.464;6.968;2023-04-16T14:01:21;14.80;99.90
22288;DHT22;11312;51.464;6.968;2023-04-16T14:03:46;14.60;99.90
22288;DHT22;11312;51.464;6.968;2023-04-16T14:06:12;14.60;99.90
22288;DHT22;11312;51.464;6.968;2023-04-16T14:08:38;14.60;99.90
22288;DHT22;11312;51.464;6.968;2023-04-16T14:11:03;14.40;99.90
22288;DHT22;11312;51.464;6.968;2023-04-16T14:13:30;14.40;99.90
22288;DHT22;11312;51.464;6.968;2023-04-16T14:15:56;14.40;99.90
22288;DHT22;11312;51.464;6.968;2023-04-16T14:18:22;14.40;99.90
22288;DHT22;11312;51.464;6.968;2023-04-16T14:20:47;14.60;99.90
22288;DHT22;11312;51.464;6.968;2023-04-16T14:23:13;14.80;99.90
22288;DHT22;11312;51.464;6.968;2023-04-16T14:25:38;14.80;99.90
22288;DHT22;11312;51.464;6.968;2023-04-16T14:28:04;14.20;99.90
22288;DHT22;11312;51.464;6.968;2023-04-16T14:30:30;14.70;99.90
22288;DHT22;11312;51.464;6.968;2023-04-16T14:32:55;14.60;99.90
22288;DHT22;11312;51.464;6.968;2023-04-16T14:35:22;14.50;99.90
22288;DHT22;11312;51.464;6.968;2023-04-16T14:37:48;14.20;99.90
22288;DHT22;11312;51.464;6.968;2023-04-16T14:40:13;14.20;99.90
22288;DHT22;11312;51.464;6.968;2023-04-16T14:42:39;14.40;99.90
22288;DHT22;11312;51.464;6.968;2023-04-16T14:45:08;14.40;99.90
22288;DHT22;11312;51.464;6.968;2023-04-16T14:47:34;14.50;99.90
22288;DHT22;11312;51.464;6.968;2023-04-16T14:50:01;14.50;99.90
22288;DHT22;11312;51.464;6.968;2023-04-16T14:52:26;14.70;99.90
22288;DHT22;11312;51.464;6.968;2023-04-16T14:54:53;14.80;99.90
22288;DHT22;11312;51.464;6.968;2023-04-16T14:57:20;14.90;99.90
22288;DHT22;11312;51.464;6.968;2023-04-16T14:59:45;15.00;99.90
22288;DHT22;11312;51.464;6.968;2023-04-16T15:02:12;15.00;99.90
22288;DHT22;11312;51.464;6.968;2023-04-16T15:04:38;15.00;99.90
22288;DHT22;11312;51.464;6.968;2023-04-16T15:07:04;15.20;99.90
22288;DHT22;11312;51.464;6.968;2023-04-16T15:09:29;15.60;99.90
22288;DHT22;11312;51.464;6.968;2023-04-16T15:11:56;16.10;99.90
22288;DHT22;11312;51.464;6.968;2023-04-16T15:14:23;16.20;99.90
22288;DHT22;11312;51.464;6.968;2023-04-16T15:16:48;16.20;99.90
22288;DHT22;11312;51.464;6.968;2023-04-16T15:19:14;16.20;99.90
22288;DHT22;11312;51.464;6.968;2023-04-16T15:21:39;15.90;99.90
22288;DHT22;11312;51.464;6.968;2023-04-16T15:24:05;15.70;99.90
22288;DHT22;11312;51.464;6.968;2023-04-16T15:26:31;15.80;99.90
22288;DHT22;11312;51.464;6.968;2023-04-16T15:28:56;15.60;99.90
22288;DHT22;11312;51.464;6.968;2023-04-16T15:31:22;15.70;99.90
22288;DHT22;11312;51.464;6.968;2023-04-16T15:33:48;15.80;99.90
22288;DHT22;11312;51.464;6.968;2023-04-16T15:36:14;15.70;99.90
22288;DHT22;11312;51.464;6.968;2023-04-16T15:38:39;16.00;99.90
22288;DHT22;11312;51.464;6.968;2023-04-16T15:41:06;16.30;99.90
22288;DHT22;11312;51.464;6.968;2023-04-16T15:43:33;16.40;99.90
22288;DHT22;11312;51.464;6.968;2023-04-16T15:45:58;16.60;99.90
22288;DHT22;11312;51.464;6.968;2023-04-16T15:48:24;16.20;99.90
22288;DHT22;11312;51.464;6.968;2023-04-16T15:50:50;16.00;99.90
22288;DHT22;11312;51.464;6.968;2023-04-16T15:53:16;15.80;99.90
22288;DHT22;11312;51.464;6.968;2023-04-16T15:55:43;15.40;99.90
22288;DHT22;11312;51.464;6.968;2023-04-16T15:58:08;15.10;99.90
22288;DHT22;11312;51.464;6.968;2023-04-16T16:00:34;14.90;99.90
22288;DHT22;11312;51.464;6.968;2023-04-16T16:03:00;14.60;99.90
22288;DHT22;11312;51.464;6.968;2023-04-16T16:05:26;14.70;99.90
22288;DHT22;11312;51.464;6.968;2023-04-16T16:07:52;14.70;99.90
22288;DHT22;11312;51.464;6.968;2023-04-16T16:10:18;14.70;99.90
22288;DHT22;11312;51.464;6.968;2023-04-16T16:12:45;14.60;99.90
22288;DHT22;11312;51.464;6.968;2023-04-16T16:15:11;14.30;99.90
22288;DHT22;11312;51.464;6.968;2023-04-16T16:17:37;14.30;99.90
22288;DHT22;11312;51.464;6.968;2023-04-16T16:20:02;14.30;99.90
22288;DHT22;11312;51.464;6.968;2023-04-16T16:22:28;14.20;99.90
22288;DHT22;11312;51.464;6.968;2023-04-16T16:24:55;14.20;99.90
22288;DHT22;11312;51.464;6.968;2023-04-16T16:27:22;14.10;99.90
22288;DHT22;11312;51.464;6.968;2023-04-16T16:29:47;14.20;99.90
22288;DHT22;11312;51.464;6.968;2023-04-16T16:32:13;14.20;99.90
22288;DHT22;11312;51.464;6.968;2023-04-16T16:34:39;14.10;99.90
22288;DHT22;11312;51.464;6.968;2023-04-16T16:37:05;14.20;99.90
22288;DHT22;11312;51.464;6.968;2023-04-16T16:39:31;14.10;99.90
22288;DHT22;11312;51.464;6.968;2023-04-16T16:41:57;15.20;99.90
22288;DHT22;11312;51.464;6.968;2023-04-16T16:44:22;15.50;99.90
22288;DHT22;11312;51.464;6.968;2023-04-16T16:46:48;14.80;99.90
22288;DHT22;11312;51.464;6.968;2023-04-16T16:49:15;15.00;99.90
22288;DHT22;11312;51.464;6.968;2023-04-16T16:51:41;16.10;99.90
22288;DHT22;11312;51.464;6.968;2023-04-16T16:54:08;16.40;99.90
22288;DHT22;11312;51.464;6.968;2023-04-16T16:56:34;17.00;99.90
22288;DHT22;11312;51.464;6.968;2023-04-16T16:59:00;17.20;99.90
22288;DHT22;11312;51.464;6.968;2023-04-16T17:01:25;17.70;99.90
22288;DHT22;11312;51.464;6.968;2023-04-16T17:03:51;17.50;99.90
22288;DHT22;11312;51.464;6.968;2023-04-16T17:06:17;16.80;99.90
22288;DHT22;11312;51.464;6.968;2023-04-16T17:08:42;16.90;99.90
22288;DHT22;11312;51.464;6.968;2023-04-16T17:11:08;17.50;99.90
22288;DHT22;11312;51.464;6.968;2023-04-16T17:13:34;17.70;99.90
22288;DHT22;11312;51.464;6.968;2023-04-16T17:15:59;17.40;99.90
22288;DHT22;11312;51.464;6.968;2023-04-16T17:18:26;16.60;99.90
22288;DHT22;11312;51.464;6.968;2023-04-16T17:20:52;16.80;99.90
22288;DHT22;11312;51.464;6.968;2023-04-16T17:23:17;16.80;99.90
22288;DHT22;11312;51.464;6.968;2023-04-16T17:25:43;16.40;99.90
22288;DHT22;11312;51.464;6.968;2023-04-16T17:28:09;17.20;99.90
22288;DHT22;11312;51.464;6.968;2023-04-16T17:30:34;16.60;99.90
22288;DHT22;11312;51.464;6.968;2023-04-16T17:33:00;17.20;99.90
22288;DHT22;11312;51.464;6.968;2023-04-16T17:35:28;17.20;99.90
22288;DHT22;11312;51.464;6.968;2023-04-16T17:37:54;16.50;99.90
22288;DHT22;11312;51.464;6.968;2023-04-16T17:40:20;16.70;99.90
22288;DHT22;11312;51.464;6.968;2023-04-16T17:42:47;15.40;99.90
22288;DHT22;11312;51.464;6.968;2023-04-16T17:45:13;14.60;99.90
22288;DHT22;11312;51.464;6.968;2023-04-16T17:47:39;14.40;99.90
22288;DHT22;11312;51.464;6.968;2023-04-16T17:50:05;14.00;99.90
22288;DHT22;11312;51.464;6.968;2023-04-16T17:52:31;13.70;99.90
22288;DHT22;11312;51.464;6.968;2023-04-16T17:54:57;13.70;99.90
22288;DHT22;11312;51.464;6.968;2023-04-16T17:57:28;13.50;99.90
22288;DHT22;11312;51.464;6.968;2023-04-16T17:59:55;13.50;99.90
22288;DHT22;11312;51.464;6.968;2023-04-16T18:02:21;13.30;99.90
22288;DHT22;11312;51.464;6.968;2023-04-16T18:04:46;13.30;99.90
22288;DHT22;11312;51.464;6.968;2023-04-16T18:07:13;13.00;99.90
22288;DHT22;11312;51.464;6.968;2023-04-16T18:09:39;13.00;99.90
22288;DHT22;11312;51.464;6.968;2023-04-16T18:12:05;12.90;99.90
22288;DHT22;11312;51.464;6.968;2023-04-16T18:14:34;12.90;99.90
22288;DHT22;11312;51.464;6.968;2023-04-16T18:17:01;12.90;99.90
22288;DHT22;11312;51.464;6.968;2023-04-16T18:19:27;12.80;99.90
22288;DHT22;11312;51.464;6.968;2023-04-16T18:21:56;12.80;99.90
22288;DHT22;11312;51.464;6.968;2023-04-16T18:24:23;12.70;99.90
22288;DHT22;11312;51.464;6.968;2023-04-16T18:26:49;12.70;99.90
22288;DHT22;11312;51.464;6.968;2023-04-16T18:29:15;12.70;99.90
22288;DHT22;11312;51.464;6.968;2023-04-16T18:31:40;12.60;99.90
22288;DHT22;11312;51.464;6.968;2023-04-16T18:34:06;12.50;99.90
22288;DHT22;11312;51.464;6.968;2023-04-16T18:36:32;12.60;99.90
22288;DHT22;11312;51.464;6.968;2023-04-16T18:38:58;12.60;99.90
22288;DHT22;11312;51.464;6.968;2023-04-16T18:41:23;12.50;99.90
22288;DHT22;11312;51.464;6.968;2023-04-16T18:43:49;12.50;99.90
22288;DHT22;11312;51.464;6.968;2023-04-16T18:46:15;12.50;99.90
22288;DHT22;11312;51.464;6.968;2023-04-16T18:48:41;12.40;99.90
22288;DHT22;11312;51.464;6.968;2023-04-16T18:51:08;12.40;99.90
22288;DHT22;11312;51.464;6.968;2023-04-16T18:53:34;12.30;99.90
22288;DHT22;11312;51.464;6.968;2023-04-16T18:56:00;12.40;99.90
22288;DHT22;11312;51.464;6.968;2023-04-16T18:58:25;12.30;99.90
22288;DHT22;11312;51.464;6.968;2023-04-16T19:00:52;12.40;99.90
22288;DHT22;11312;51.464;6.968;2023-04-16T19:03:18;12.40;99.90
22288;DHT22;11312;51.464;6.968;2023-04-16T19:05:44;12.30;99.90
22288;DHT22;11312;51.464;6.968;2023-04-16T19:08:10;12.40;99.90
22288;DHT22;11312;51.464;6.968;2023-04-16T19:10:35;12.20;99.90
22288;DHT22;11312;51.464;6.968;2023-04-16T19:13:01;12.00;99.90
22288;DHT22;11312;51.464;6.968;2023-04-16T19:15:26;12.20;99.90
22288;DHT22;11312;51.464;6.968;2023-04-16T19:17:52;12.30;99.90
22288;DHT22;11312;51.464;6.968;2023-04-16T19:20:18;12.20;99.90
22288;DHT22;11312;51.464;6.968;2023-04-16T19:22:44;12.20;99.90
22288;DHT22;11312;51.464;6.968;2023-04-16T19:25:10;12.20;99.90
22288;DHT22;11312;51.464;6.968;2023-04-16T19:27:36;12.20;99.90
22288;DHT22;11312;51.464;6.968;2023-04-16T19:30:01;12.30;99.90
22288;DHT22;11312;51.464;6.968;2023-04-16T19:32:27;12.20;99.90
22288;DHT22;11312;51.464;6.968;2023-04-16T19:34:53;12.20;99.90
22288;DHT22;11312;51.464;6.968;2023-04-16T19:37:19;12.20;99.90
22288;DHT22;11312;51.464;6.968;2023-04-16T19:39:44;12.20;99.90
22288;DHT22;11312;51.464;6.968;2023-04-16T19:42:10;12.00;99.90
22288;DHT22;11312;51.464;6.968;2023-04-16T19:44:36;12.10;99.90
22288;DHT22;11312;51.464;6.968;2023-04-16T19:47:02;12.10;99.90
22288;DHT22;11312;51.464;6.968;2023-04-16T19:49:27;12.10;99.90
22288;DHT22;11312;51.464;6.968;2023-04-16T19:51:53;12.10;99.90
22288;DHT22;11312;51.464;6.968;2023-04-16T19:54:19;12.10;99.90
22288;DHT22;11312;51.464;6.968;2023-04-16T19:56:45;12.10;99.90
22288;DHT22;11312;51.464;6.968;2023-04-16T19:59:10;12.00;99.90
22288;DHT22;11312;51.464;6.968;2023-04-16T20:01:36;12.00;99.90
22288;DHT22;11312;51.464;6.968;2023-04-16T20:04:01;12.00;99.90
22288;DHT22;11312;51.464;6.968;2023-04-16T20:06:27;12.00;99.90
22288;DHT22;11312;51.464;6.968;2023-04-16T20:08:53;11.90;99.90
22288;DHT22;11312;51.464;6.968;2023-04-16T20:11:18;11.90;99.90
22288;DHT22;11312;51.464;6.968;2023-04-16T20:13:47;11.90;99.90
22288;DHT22;11312;51.464;6.968;2023-04-16T20:16:13;11.80;99.90
22288;DHT22;11312;51.464;6.968;2023-04-16T20:18:39;11.80;99.90
22288;DHT22;11312;51.464;6.968;2023-04-16T20:21:08;11.80;99.90
22288;DHT22;11312;51.464;6.968;2023-04-16T20:23:33;11.80;99.90
22288;DHT22;11312;51.464;6.968;2023-04-16T20:25:59;11.70;99.90
22288;DHT22;11312;51.464;6.968;2023-04-16T20:28:25;11.60;99.90
22288;DHT22;11312;51.464;6.968;2023-04-16T20:30:51;11.70;99.90
22288;DHT22;11312;51.464;6.968;2023-04-16T20:33:16;11.60;99.90
22288;DHT22;11312;51.464;6.968;2023-04-16T20:35:42;11.60;99.90
22288;DHT22;11312;51.464;6.968;2023-04-16T20:38:08;11.60;99.90
22288;DHT22;11312;51.464;6.968;2023-04-16T20:40:33;11.70;99.90
22288;DHT22;11312;51.464;6.968;2023-04-16T20:43:02;11.70;99.90
22288;DHT22;11312;51.464;6.968;2023-04-16T20:45:28;11.70;99.90
22288;DHT22;11312;51.464;6.968;2023-04-16T20:48:03;11.70;99.90
22288;DHT22;11312;51.464;6.968;2023-04-16T20:50:28;11.70;99.90
22288;DHT22;11312;51.464;6.968;2023-04-16T20:52:54;11.60;99.90
22288;DHT22;11312;51.464;6.968;2023-04-16T20:55:20;11.60;99.90
22288;DHT22;11312;51.464;6.968;2023-04-16T20:57:46;11.50;99.90
22288;DHT22;11312;51.464;6.968;2023-04-16T21:00:12;11.40;99.90
22288;DHT22;11312;51.464;6.968;2023-04-16T21:02:39;11.50;99.90
22288;DHT22;11312;51.464;6.968;2023-04-16T21:05:05;11.60;99.90
22288;DHT22;11312;51.464;6.968;2023-04-16T21:07:33;11.50;99.90
22288;DHT22;11312;51.464;6.968;2023-04-16T21:09:58;11.50;99.90
22288;DHT22;11312;51.464;6.968;2023-04-16T21:12:25;11.50;99.90